Time;durP1;ratioP1;P1;durP2;ratioP2;P2;SDS_P1;SDS_P2;PMS_P1;PMS_P2;Temp;Humidity;BMP_temperature;BMP_pressure;BME280_temperature;BME280_humidity;BME280_pressure;Samples;Min_cycle;Max_cycle;Signal;HPM_P1;HPM_P2
2023/06/27 00:00:53;;;;;;;0.15;0.15;;;16.30;92.70;;;;;;5051529;28;20076;-77
2023/06/27 00:03:18;;;;;;;0.10;0.10;;;16.30;92.80;;;;;;5033681;28;20522;-78
2023/06/27 00:05:46;;;;;;;0.20;0.20;;;16.30;92.90;;;;;;5033246;28;20097;-77
2023/06/27 00:08:12;;;;;;;0.20;0.20;;;16.20;93.00;;;;;;5031778;28;20489;-77
2023/06/27 00:10:38;;;;;;;0.20;0.20;;;16.20;93.20;;;;;;5050539;28;20045;-77
2023/06/27 00:13:04;;;;;;;0.20;0.20;;;16.20;93.30;;;;;;5047725;28;20603;-78
2023/06/27 00:15:34;;;;;;;0.20;0.20;;;16.20;93.40;;;;;;5051305;28;20045;-78
2023/06/27 00:18:00;;;;;;;0.20;0.20;;;16.10;93.40;;;;;;5051313;28;20108;-78
2023/06/27 00:20:25;;;;;;;0.20;0.20;;;16.10;93.50;;;;;;5050591;28;20179;-77
2023/06/27 00:22:51;;;;;;;0.20;0.20;;;16.10;93.50;;;;;;5051104;28;20052;-77
2023/06/27 00:25:17;;;;;;;0.20;0.20;;;16.10;93.50;;;;;;5043681;28;20048;-77
2023/06/27 00:27:43;;;;;;;0.20;0.20;;;16.10;93.60;;;;;;5048525;28;20080;-77
2023/06/27 00:30:09;;;;;;;0.17;0.17;;;16.10;93.70;;;;;;5031341;28;20077;-78
2023/06/27 00:32:34;;;;;;;0.20;0.20;;;16.10;93.80;;;;;;5040564;28;20052;-77
2023/06/27 00:35:00;;;;;;;0.10;0.10;;;16.10;93.80;;;;;;5047917;28;20045;-77
2023/06/27 00:37:26;;;;;;;0.20;0.20;;;16.10;93.80;;;;;;5046404;28;20674;-77
2023/06/27 00:39:51;;;;;;;0.20;0.20;;;16.10;93.80;;;;;;5044893;28;20045;-77
2023/06/27 00:42:17;;;;;;;0.20;0.20;;;16.10;93.90;;;;;;5045623;28;20064;-77
2023/06/27 00:44:43;;;;;;;0.10;0.10;;;16.10;93.90;;;;;;5048130;28;20118;-78
2023/06/27 00:47:09;;;;;;;0.20;0.20;;;16.00;93.90;;;;;;5046609;28;20955;-78
2023/06/27 00:49:34;;;;;;;0.20;0.20;;;16.10;94.00;;;;;;5048392;28;20045;-77
2023/06/27 00:52:01;;;;;;;0.20;0.20;;;16.10;94.00;;;;;;5048361;28;20532;-77
2023/06/27 00:54:27;;;;;;;0.20;0.20;;;16.10;94.00;;;;;;5048967;28;20492;-77
2023/06/27 00:56:55;;;;;;;0.20;0.20;;;16.10;94.10;;;;;;5046289;28;20044;-77
2023/06/27 00:59:22;;;;;;;0.20;0.20;;;16.10;94.10;;;;;;5043827;28;20036;-77
2023/06/27 01:01:48;;;;;;;0.20;0.20;;;16.10;94.10;;;;;;5047228;28;20054;-77
2023/06/27 01:04:14;;;;;;;0.20;0.20;;;16.00;94.20;;;;;;5046062;28;20094;-77
2023/06/27 01:06:53;;;;;;;0.20;0.20;;;16.00;94.20;;;;;;5045041;28;20041;-77
2023/06/27 01:09:48;;;;;;;0.20;0.20;;;16.00;94.20;;;;;;5048904;28;20053;-77
2023/06/27 01:12:22;;;;;;;0.13;0.13;;;16.00;94.20;;;;;;5048082;28;21595;-77
2023/06/27 01:14:52;;;;;;;0.20;0.20;;;16.00;94.20;;;;;;5046299;28;20052;-79
2023/06/27 01:17:19;;;;;;;0.20;0.20;;;16.00;94.20;;;;;;5046867;28;20123;-79
2023/06/27 01:19:46;;;;;;;0.17;0.17;;;16.00;94.20;;;;;;5046631;28;20045;-79
2023/06/27 01:22:16;;;;;;;0.20;0.20;;;16.00;94.20;;;;;;5045344;28;20042;-78
2023/06/27 01:24:43;;;;;;;0.20;0.20;;;16.00;94.50;;;;;;5047758;28;20080;-77
2023/06/27 01:27:11;;;;;;;0.15;0.15;;;16.00;94.20;;;;;;5046101;28;20865;-77
2023/06/27 01:29:40;;;;;;;0.20;0.20;;;16.00;94.30;;;;;;5046935;28;20045;-77
2023/06/27 01:32:32;;;;;;;0.20;0.20;;;16.00;94.30;;;;;;5047082;28;20403;-77
2023/06/27 01:35:12;;;;;;;0.20;0.20;;;15.90;94.30;;;;;;5032028;28;20526;-78
2023/06/27 01:37:50;;;;;;;0.10;0.10;;;15.90;94.40;;;;;;5031091;28;20563;-78
2023/06/27 01:40:19;;;;;;;0.20;0.20;;;15.90;94.50;;;;;;5034638;28;20084;-77
2023/06/27 01:42:59;;;;;;;0.10;0.10;;;15.90;94.60;;;;;;5046872;28;20542;-77
2023/06/27 01:45:25;;;;;;;0.20;0.20;;;15.90;94.60;;;;;;5031157;28;20147;-77
2023/06/27 01:47:54;;;;;;;0.10;0.10;;;15.80;94.70;;;;;;5032431;28;20041;-79
2023/06/27 01:50:20;;;;;;;0.10;0.10;;;15.90;94.80;;;;;;5030327;28;20665;-77
2023/06/27 01:52:46;;;;;;;0.20;0.20;;;15.80;94.80;;;;;;5048551;28;20065;-77
2023/06/27 01:55:11;;;;;;;0.20;0.20;;;15.80;94.80;;;;;;5031333;28;20057;-78
2023/06/27 01:57:37;;;;;;;0.17;0.17;;;15.90;94.90;;;;;;5027471;28;20121;-77
2023/06/27 02:00:04;;;;;;;0.20;0.20;;;15.80;95.00;;;;;;5031238;28;20053;-78
2023/06/27 02:02:30;;;;;;;0.20;0.20;;;15.90;95.00;;;;;;5032026;28;20132;-78
2023/06/27 02:04:56;;;;;;;0.20;0.20;;;15.90;95.10;;;;;;5048801;28;20116;-78
2023/06/27 02:07:21;;;;;;;0.20;0.20;;;15.80;95.00;;;;;;5031012;28;20087;-78
2023/06/27 02:09:47;;;;;;;0.20;0.20;;;15.90;95.10;;;;;;5031452;28;20041;-77
2023/06/27 02:12:13;;;;;;;0.20;0.20;;;15.90;95.20;;;;;;5047243;28;20037;-78
2023/06/27 02:14:38;;;;;;;0.20;0.20;;;15.90;95.20;;;;;;5031387;28;20045;-77
2023/06/27 02:17:05;;;;;;;0.10;0.10;;;15.80;95.20;;;;;;5030938;28;20140;-78
2023/06/27 02:19:30;;;;;;;0.20;0.20;;;15.90;95.30;;;;;;5048744;28;20044;-78
2023/06/27 02:21:57;;;;;;;0.20;0.20;;;15.90;95.40;;;;;;5047879;28;20154;-77
2023/06/27 02:24:23;;;;;;;0.10;0.10;;;15.90;95.50;;;;;;5030790;28;20485;-78
2023/06/27 02:26:48;;;;;;;0.20;0.20;;;15.80;95.50;;;;;;5043824;28;20044;-77
2023/06/27 02:29:14;;;;;;;0.10;0.10;;;15.80;95.50;;;;;;5029413;28;20036;-77
2023/06/27 02:31:40;;;;;;;0.20;0.20;;;15.80;95.50;;;;;;5044155;28;20058;-77
2023/06/27 02:34:05;;;;;;;0.20;0.20;;;15.80;95.50;;;;;;5026994;28;20072;-77
2023/06/27 02:36:31;;;;;;;0.20;0.20;;;15.80;95.50;;;;;;5029930;28;20127;-78
2023/06/27 02:39:01;;;;;;;0.20;0.20;;;15.80;95.60;;;;;;5028826;28;20041;-77
2023/06/27 02:41:27;;;;;;;0.20;0.20;;;15.80;95.60;;;;;;5048902;28;20045;-78
2023/06/27 02:43:52;;;;;;;0.20;0.20;;;15.80;95.60;;;;;;5029768;28;20051;-77
2023/06/27 02:46:18;;;;;;;0.20;0.20;;;15.90;95.70;;;;;;5030644;28;20052;-77
2023/06/27 02:48:44;;;;;;;0.20;0.20;;;15.90;95.80;;;;;;5031186;28;20041;-77
2023/06/27 02:51:10;;;;;;;0.20;0.20;;;15.80;95.80;;;;;;5030950;28;20053;-77
2023/06/27 02:53:36;;;;;;;0.20;0.20;;;15.80;95.70;;;;;;5030182;28;20037;-78
2023/06/27 02:56:03;;;;;;;0.10;0.10;;;15.80;95.80;;;;;;5016361;28;20041;-77
2023/06/27 02:58:32;;;;;;;0.20;0.20;;;15.80;95.90;;;;;;5029900;28;20049;-77
2023/06/27 03:01:06;;;;;;;0.20;0.20;;;15.80;95.90;;;;;;5048258;28;20041;-78
2023/06/27 03:03:32;;;;;;;0.20;0.20;;;15.80;95.90;;;;;;5048455;28;20049;-78
2023/06/27 03:06:03;;;;;;;0.13;0.13;;;15.80;96.00;;;;;;5028208;28;20044;-77
2023/06/27 03:08:30;;;;;;;0.20;0.20;;;15.80;96.00;;;;;;5025022;28;20506;-77
2023/06/27 03:10:56;;;;;;;0.15;0.15;;;15.80;96.10;;;;;;5049803;28;20049;-78
2023/06/27 03:13:22;;;;;;;0.10;0.10;;;15.70;96.10;;;;;;5047510;28;20400;-78
2023/06/27 03:15:48;;;;;;;0.10;0.10;;;15.70;96.20;;;;;;5047402;28;20107;-78
2023/06/27 03:18:13;;;;;;;0.10;0.10;;;15.70;96.20;;;;;;5031379;28;20033;-77
2023/06/27 03:20:39;;;;;;;0.20;0.20;;;15.70;96.20;;;;;;5030723;28;20041;-78
2023/06/27 03:23:05;;;;;;;0.20;0.20;;;15.70;96.30;;;;;;5047461;28;20037;-78
2023/06/27 03:25:30;;;;;;;0.10;0.10;;;15.70;96.30;;;;;;5030026;28;20045;-78
2023/06/27 03:27:56;;;;;;;0.20;0.20;;;15.70;96.30;;;;;;5025772;28;20098;-77
2023/06/27 03:30:22;;;;;;;0.10;0.10;;;15.70;96.40;;;;;;5051677;28;20072;-78
2023/06/27 03:32:48;;;;;;;0.10;0.10;;;15.70;96.40;;;;;;5039055;28;20057;-78
2023/06/27 03:35:13;;;;;;;0.13;0.13;;;15.70;96.50;;;;;;5048009;28;20047;-77
2023/06/27 03:37:39;;;;;;;0.10;0.10;;;15.70;96.50;;;;;;5051233;28;20041;-78
2023/06/27 03:40:05;;;;;;;0.20;0.20;;;15.70;96.60;;;;;;5034004;28;20106;-78
2023/06/27 03:42:31;;;;;;;0.10;0.10;;;15.70;96.60;;;;;;5031255;28;20048;-77
2023/06/27 03:44:57;;;;;;;0.10;0.10;;;15.70;96.70;;;;;;5051089;28;20033;-78
2023/06/27 03:47:23;;;;;;;0.20;0.20;;;15.70;96.70;;;;;;5034025;28;20037;-78
2023/06/27 03:49:49;;;;;;;0.17;0.17;;;15.80;96.70;;;;;;5032406;28;20134;-77
2023/06/27 03:52:14;;;;;;;0.10;0.10;;;15.80;96.70;;;;;;5050663;28;20099;-78
2023/06/27 03:54:40;;;;;;;0.20;0.20;;;15.80;96.70;;;;;;5031772;28;20476;-78
2023/06/27 03:57:06;;;;;;;0.20;0.20;;;15.80;96.80;;;;;;5032840;28;20848;-78
2023/06/27 03:59:32;;;;;;;0.20;0.20;;;15.80;96.80;;;;;;5033353;28;20036;-78
2023/06/27 04:01:58;;;;;;;0.20;0.20;;;15.80;97.10;;;;;;5046631;28;20053;-78
2023/06/27 04:04:25;;;;;;;0.17;0.17;;;15.90;97.10;;;;;;5032508;28;20040;-78
2023/06/27 04:06:51;;;;;;;0.15;0.15;;;15.90;96.90;;;;;;5050941;28;20083;-78
2023/06/27 04:09:17;;;;;;;0.10;0.10;;;15.90;97.00;;;;;;5050181;28;20044;-77
2023/06/27 04:11:42;;;;;;;0.10;0.10;;;15.90;97.00;;;;;;5031955;28;20041;-77
2023/06/27 04:14:08;;;;;;;0.13;0.13;;;15.90;97.10;;;;;;5048920;28;20056;-77
2023/06/27 04:16:34;;;;;;;0.20;0.20;;;15.90;97.20;;;;;;5032863;28;20102;-77
2023/06/27 04:18:59;;;;;;;0.20;0.20;;;16.00;97.20;;;;;;5030927;28;20601;-76
2023/06/27 04:21:25;;;;;;;0.20;0.20;;;16.00;97.30;;;;;;5050876;28;20041;-77
2023/06/27 04:23:53;;;;;;;0.20;0.20;;;16.00;97.30;;;;;;5031392;28;20045;-77
2023/06/27 04:26:19;;;;;;;0.20;0.20;;;16.00;97.30;;;;;;5047640;28;20048;-78
2023/06/27 04:28:47;;;;;;;0.20;0.20;;;16.00;97.30;;;;;;5028434;28;20051;-78
2023/06/27 04:31:12;;;;;;;0.20;0.20;;;16.00;97.30;;;;;;5048644;28;20068;-78
2023/06/27 04:33:39;;;;;;;0.13;0.13;;;16.10;97.30;;;;;;5051225;28;20401;-78
2023/06/27 04:36:15;;;;;;;0.20;0.20;;;16.10;97.30;;;;;;5032732;28;20053;-78
2023/06/27 04:38:44;;;;;;;0.20;0.20;;;16.10;97.40;;;;;;5032715;28;20119;-78
2023/06/27 04:41:11;;;;;;;0.10;0.10;;;16.10;97.40;;;;;;5049867;28;20068;-77
2023/06/27 04:43:39;;;;;;;0.10;0.10;;;16.20;97.40;;;;;;5031642;28;20059;-78
2023/06/27 04:46:05;;;;;;;0.20;0.20;;;16.20;97.30;;;;;;5049112;28;20056;-77
2023/06/27 04:48:31;;;;;;;0.20;0.20;;;16.20;97.30;;;;;;5050624;28;20041;-78
2023/06/27 04:50:57;;;;;;;0.13;0.13;;;16.30;97.40;;;;;;5031490;28;20090;-78
2023/06/27 04:53:25;;;;;;;0.20;0.20;;;16.30;97.50;;;;;;5048527;28;20083;-78
2023/06/27 04:55:53;;;;;;;0.20;0.20;;;16.40;97.50;;;;;;5030606;28;20126;-78
2023/06/27 04:58:19;;;;;;;0.15;0.15;;;16.30;97.40;;;;;;5030903;28;20106;-78
2023/06/27 05:00:47;;;;;;;0.10;0.10;;;16.40;97.50;;;;;;5030893;28;20190;-77
2023/06/27 05:03:13;;;;;;;0.17;0.17;;;16.40;97.50;;;;;;5026659;28;20044;-78
2023/06/27 05:05:39;;;;;;;0.20;0.20;;;16.40;97.50;;;;;;5029840;28;20045;-77
2023/06/27 05:08:05;;;;;;;0.10;0.10;;;16.50;97.60;;;;;;5048452;28;20086;-78
2023/06/27 05:10:31;;;;;;;0.17;0.17;;;16.50;97.60;;;;;;5048368;28;20048;-77
2023/06/27 05:12:58;;;;;;;0.20;0.20;;;16.60;97.70;;;;;;5030228;28;20067;-78
2023/06/27 05:15:23;;;;;;;0.20;0.20;;;16.60;97.60;;;;;;5029962;28;20053;-78
2023/06/27 05:17:53;;;;;;;0.15;0.15;;;16.60;97.60;;;;;;5047573;28;20051;-78
2023/06/27 05:20:19;;;;;;;0.15;0.15;;;16.70;97.70;;;;;;5031100;28;20048;-78
2023/06/27 05:22:45;;;;;;;0.20;0.20;;;16.70;97.70;;;;;;5032368;28;20052;-78
2023/06/27 05:25:11;;;;;;;0.20;0.20;;;16.80;97.80;;;;;;5048858;28;20652;-78
2023/06/27 05:27:37;;;;;;;0.15;0.15;;;16.80;97.80;;;;;;5043544;28;20033;-78
2023/06/27 05:30:03;;;;;;;0.17;0.17;;;16.80;97.70;;;;;;5019331;28;20123;-77
2023/06/27 05:32:29;;;;;;;0.20;0.20;;;16.90;97.80;;;;;;5047880;28;20554;-77
2023/06/27 05:34:54;;;;;;;0.15;0.15;;;16.90;97.90;;;;;;5047648;28;20057;-77
2023/06/27 05:37:20;;;;;;;0.10;0.10;;;16.90;97.80;;;;;;5030302;28;20072;-78
2023/06/27 05:39:46;;;;;;;0.10;0.10;;;17.00;97.90;;;;;;5047764;28;20051;-78
2023/06/27 05:42:12;;;;;;;0.20;0.20;;;17.10;98.00;;;;;;5044250;28;20033;-78
2023/06/27 05:44:37;;;;;;;0.10;0.10;;;17.10;97.90;;;;;;5048525;28;20040;-78
2023/06/27 05:47:03;;;;;;;0.20;0.20;;;17.10;97.90;;;;;;5029906;28;20053;-78
2023/06/27 05:49:29;;;;;;;0.20;0.20;;;17.20;98.00;;;;;;5029335;28;20091;-77
2023/06/27 05:51:55;;;;;;;0.10;0.10;;;17.20;98.00;;;;;;5049541;28;20045;-78
2023/06/27 05:54:20;;;;;;;0.10;0.10;;;17.30;98.00;;;;;;5030620;28;20076;-77
2023/06/27 05:56:46;;;;;;;0.20;0.20;;;17.30;98.00;;;;;;5047815;28;20067;-77
2023/06/27 05:59:12;;;;;;;0.20;0.20;;;17.30;98.00;;;;;;5045695;28;20170;-78
2023/06/27 06:01:37;;;;;;;0.20;0.20;;;17.40;98.00;;;;;;5029828;28;20045;-78
2023/06/27 06:04:06;;;;;;;0.10;0.10;;;17.40;98.00;;;;;;5045378;28;20041;-77
2023/06/27 06:06:38;;;;;;;0.20;0.20;;;17.50;97.90;;;;;;5046911;28;20037;-77
2023/06/27 06:09:07;;;;;;;0.10;0.10;;;17.50;98.10;;;;;;5046821;28;20140;-78
2023/06/27 06:11:36;;;;;;;0.20;0.20;;;17.60;97.80;;;;;;5026807;28;20745;-78
2023/06/27 06:14:03;;;;;;;0.20;0.20;;;17.60;97.80;;;;;;5026478;28;20041;-78
2023/06/27 06:16:32;;;;;;;0.20;0.20;;;17.70;97.80;;;;;;5030112;28;20045;-78
2023/06/27 06:18:58;;;;;;;0.20;0.20;;;17.70;97.90;;;;;;5044981;28;20056;-78
2023/06/27 06:21:24;;;;;;;0.13;0.13;;;17.80;97.90;;;;;;5031118;28;20073;-78
2023/06/27 06:23:50;;;;;;;0.20;0.20;;;17.90;97.80;;;;;;5031185;28;20092;-78
2023/06/27 06:26:15;;;;;;;0.20;0.20;;;17.90;97.70;;;;;;5030607;28;20044;-77
2023/06/27 06:28:41;;;;;;;0.20;0.20;;;18.00;97.70;;;;;;5028796;28;20051;-78
2023/06/27 06:31:10;;;;;;;0.20;0.20;;;18.00;97.60;;;;;;5039398;28;20047;-77
2023/06/27 06:33:39;;;;;;;0.20;0.20;;;18.00;97.50;;;;;;5049225;28;20103;-79
2023/06/27 06:36:06;;;;;;;0.20;0.20;;;18.10;97.50;;;;;;5031213;28;20049;-79
2023/06/27 06:38:32;;;;;;;0.20;0.20;;;18.10;97.50;;;;;;5031350;28;20437;-76
2023/06/27 06:40:57;;;;;;;0.10;0.10;;;18.20;97.50;;;;;;5048940;28;20045;-77
2023/06/27 06:43:25;;;;;;;0.20;0.20;;;18.20;97.40;;;;;;5046250;28;20123;-77
2023/06/27 06:45:54;;;;;;;0.20;0.20;;;18.30;97.40;;;;;;5047514;28;20053;-78
2023/06/27 06:48:20;;;;;;;0.20;0.20;;;18.40;97.30;;;;;;5045201;28;20076;-78
2023/06/27 06:50:47;;;;;;;0.20;0.20;;;18.40;97.10;;;;;;5029967;28;20067;-77
2023/06/27 06:53:12;;;;;;;0.20;0.20;;;18.40;97.10;;;;;;5029155;28;20049;-78
2023/06/27 06:55:38;;;;;;;0.20;0.20;;;18.50;96.90;;;;;;5036255;28;20107;-78
2023/06/27 06:58:04;;;;;;;0.20;0.20;;;18.50;96.70;;;;;;5044306;28;20033;-77
2023/06/27 07:00:30;;;;;;;0.20;0.20;;;18.60;96.70;;;;;;5047180;28;20056;-77
2023/06/27 07:02:56;;;;;;;0.20;0.20;;;18.60;96.50;;;;;;5020061;28;20503;-78
2023/06/27 07:05:22;;;;;;;0.10;0.10;;;18.70;96.50;;;;;;5033383;28;20049;-77
2023/06/27 07:07:48;;;;;;;0.20;0.20;;;18.80;96.40;;;;;;5025934;28;20052;-77
2023/06/27 07:10:13;;;;;;;0.20;0.20;;;18.90;96.40;;;;;;5043093;28;20040;-76
2023/06/27 07:12:40;;;;;;;0.20;0.20;;;18.90;96.20;;;;;;5042921;28;20499;-77
2023/06/27 07:15:07;;;;;;;0.17;0.17;;;19.00;95.90;;;;;;5030759;28;20171;-77
2023/06/27 07:17:33;;;;;;;0.20;0.20;;;19.10;95.80;;;;;;5029323;28;20066;-76
2023/06/27 07:19:59;;;;;;;0.20;0.20;;;19.10;95.50;;;;;;5045450;28;20456;-77
2023/06/27 07:22:25;;;;;;;0.20;0.20;;;19.20;95.40;;;;;;5032972;28;20059;-76
2023/06/27 07:24:51;;;;;;;0.20;0.20;;;19.30;95.40;;;;;;5030927;28;20135;-76
2023/06/27 07:27:16;;;;;;;0.15;0.15;;;19.30;95.20;;;;;;5045146;28;20056;-76
2023/06/27 07:29:42;;;;;;;0.10;0.10;;;19.30;94.50;;;;;;5051292;28;20120;-77
2023/06/27 07:32:10;;;;;;;0.20;0.20;;;19.40;94.80;;;;;;5033348;28;20063;-77
2023/06/27 07:34:36;;;;;;;0.17;0.17;;;19.30;94.90;;;;;;5046276;28;20060;-77
2023/06/27 07:37:02;;;;;;;0.20;0.20;;;19.30;94.80;;;;;;5038854;28;20740;-78
2023/06/27 07:39:28;;;;;;;0.10;0.10;;;19.40;94.90;;;;;;5039703;28;20048;-78
2023/06/27 07:41:54;;;;;;;0.20;0.20;;;19.30;94.80;;;;;;5040776;28;20045;-77
2023/06/27 07:44:20;;;;;;;0.20;0.20;;;19.30;94.60;;;;;;5044032;28;20037;-78
2023/06/27 07:46:46;;;;;;;0.20;0.20;;;19.30;94.70;;;;;;5049582;28;20088;-77
2023/06/27 07:49:11;;;;;;;0.20;0.20;;;19.30;94.70;;;;;;5041435;28;20068;-77
2023/06/27 07:51:37;;;;;;;0.20;0.20;;;19.30;94.60;;;;;;5059729;28;20149;-77
2023/06/27 07:54:03;;;;;;;0.20;0.20;;;19.30;94.50;;;;;;5050920;28;20048;-77
2023/06/27 07:56:29;;;;;;;0.20;0.20;;;19.30;94.50;;;;;;5048541;28;20086;-77
2023/06/27 07:58:55;;;;;;;0.10;0.10;;;19.30;94.50;;;;;;5039250;28;20060;-76
2023/06/27 08:01:21;;;;;;;0.20;0.20;;;19.40;94.50;;;;;;5046389;28;20049;-77
2023/06/27 08:03:47;;;;;;;0.10;0.10;;;19.40;94.60;;;;;;5044908;28;20056;-77
2023/06/27 08:06:14;;;;;;;0.20;0.20;;;19.50;94.70;;;;;;5041601;28;20082;-76
2023/06/27 08:08:40;;;;;;;0.20;0.20;;;19.60;94.60;;;;;;5042045;28;20085;-76
2023/06/27 08:11:06;;;;;;;0.20;0.20;;;19.60;94.50;;;;;;5042112;28;20049;-78
2023/06/27 08:13:31;;;;;;;0.20;0.20;;;19.80;94.30;;;;;;5034612;28;20045;-78
2023/06/27 08:15:57;;;;;;;0.10;0.10;;;19.80;94.10;;;;;;5041655;28;20512;-77
2023/06/27 08:18:23;;;;;;;0.10;0.10;;;19.90;94.00;;;;;;5045211;28;20040;-77
2023/06/27 08:20:49;;;;;;;0.20;0.20;;;20.00;93.80;;;;;;5047584;28;20554;-77
2023/06/27 08:23:15;;;;;;;0.20;0.20;;;20.10;93.70;;;;;;5046869;28;20041;-77
2023/06/27 08:25:40;;;;;;;0.10;0.10;;;20.10;93.30;;;;;;5046585;28;20048;-77
2023/06/27 08:28:06;;;;;;;0.20;0.20;;;20.10;92.60;;;;;;5036206;28;20041;-79
2023/06/27 08:30:31;;;;;;;0.20;0.20;;;20.10;92.40;;;;;;5040967;28;20146;-77
2023/06/27 08:32:57;;;;;;;0.20;0.20;;;20.10;92.40;;;;;;5015766;28;20111;-77
2023/06/27 08:35:24;;;;;;;0.20;0.20;;;20.20;92.60;;;;;;5008575;28;20092;-78
2023/06/27 08:37:49;;;;;;;0.15;0.15;;;20.30;92.70;;;;;;4993545;28;20498;-77
2023/06/27 08:40:25;;;;;;;0.13;0.13;;;20.30;92.70;;;;;;5010049;28;20049;-77
2023/06/27 08:42:51;;;;;;;0.20;0.20;;;20.40;92.20;;;;;;5012492;28;20045;-77
2023/06/27 08:45:17;;;;;;;0.20;0.20;;;20.40;92.30;;;;;;5030367;28;20106;-78
2023/06/27 08:47:48;;;;;;;0.20;0.20;;;20.40;92.10;;;;;;5012210;28;20029;-77
2023/06/27 08:50:14;;;;;;;0.20;0.20;;;20.40;91.90;;;;;;5029258;28;20107;-76
2023/06/27 08:52:44;;;;;;;0.20;0.20;;;20.50;91.80;;;;;;5029418;28;20135;-76
2023/06/27 08:55:30;;;;;;;0.20;0.20;;;20.50;91.80;;;;;;5013176;28;20045;-77
2023/06/27 08:57:58;;;;;;;0.20;0.20;;;20.50;92.00;;;;;;5019922;28;20046;-77
2023/06/27 09:00:26;;;;;;;0.20;0.20;;;20.50;91.80;;;;;;5033296;28;20041;-77
2023/06/27 09:02:52;;;;;;;0.20;0.20;;;20.60;91.60;;;;;;5027729;28;20052;-77
2023/06/27 09:05:19;;;;;;;0.20;0.20;;;20.60;91.60;;;;;;5018926;28;20102;-77
2023/06/27 09:07:44;;;;;;;0.20;0.20;;;20.60;91.30;;;;;;5008463;28;20073;-77
2023/06/27 09:10:10;;;;;;;0.20;0.20;;;20.60;91.10;;;;;;5013641;28;20052;-76
2023/06/27 09:12:37;;;;;;;0.10;0.10;;;20.60;90.90;;;;;;5017434;28;20045;-77
2023/06/27 09:15:04;;;;;;;0.20;0.20;;;20.60;90.80;;;;;;5030871;28;20068;-77
2023/06/27 09:17:30;;;;;;;0.10;0.10;;;20.60;90.90;;;;;;5026174;28;20053;-77
2023/06/27 09:19:56;;;;;;;0.20;0.20;;;20.60;90.90;;;;;;5016997;28;20052;-77
2023/06/27 09:22:26;;;;;;;0.20;0.20;;;20.60;90.90;;;;;;5021815;28;20056;-76
2023/06/27 09:25:12;;;;;;;0.20;0.20;;;20.70;90.80;;;;;;5013666;28;20049;-76
2023/06/27 09:27:38;;;;;;;0.20;0.20;;;20.80;90.70;;;;;;4995928;28;20433;-76
2023/06/27 09:30:09;;;;;;;0.10;0.10;;;20.80;90.80;;;;;;5024798;28;20041;-76
2023/06/27 09:32:50;;;;;;;0.10;0.10;;;20.90;90.80;;;;;;5043823;28;20128;-77
2023/06/27 09:35:16;;;;;;;0.20;0.20;;;21.00;90.40;;;;;;5043127;28;20539;-77
2023/06/27 09:37:42;;;;;;;0.10;0.10;;;21.00;90.50;;;;;;5030972;28;20036;-76
2023/06/27 09:40:18;;;;;;;0.10;0.10;;;21.10;90.70;;;;;;5028128;28;20131;-76
2023/06/27 09:42:53;;;;;;;0.20;0.20;;;21.20;90.60;;;;;;5025093;28;20044;-76
2023/06/27 09:45:20;;;;;;;0.20;0.20;;;21.20;90.40;;;;;;5046912;28;20558;-77
2023/06/27 09:47:48;;;;;;;0.20;0.20;;;21.20;90.20;;;;;;5023767;28;20481;-76
2023/06/27 09:50:14;;;;;;;0.20;0.20;;;21.20;90.10;;;;;;5041814;28;20187;-76
2023/06/27 09:52:40;;;;;;;0.20;0.20;;;21.20;90.20;;;;;;5029519;28;20116;-77
2023/06/27 09:55:18;;;;;;;0.30;0.30;;;21.30;90.30;;;;;;5048493;28;20183;-77
2023/06/27 09:57:46;;;;;;;0.20;0.20;;;21.30;90.10;;;;;;5035059;28;20041;-78
2023/06/27 10:00:13;;;;;;;0.20;0.20;;;21.40;90.00;;;;;;5056431;28;20067;-78
2023/06/27 10:02:39;;;;;;;0.20;0.20;;;21.40;89.50;;;;;;5025729;28;20053;-77
2023/06/27 10:05:05;;;;;;;0.15;0.15;;;21.50;88.60;;;;;;5025070;28;20047;-76
2023/06/27 10:07:31;;;;;;;0.20;0.20;;;21.50;89.30;;;;;;5038798;28;20063;-77
2023/06/27 10:09:57;;;;;;;0.20;0.20;;;21.50;89.50;;;;;;5039924;28;20480;-76
2023/06/27 10:12:24;;;;;;;0.20;0.20;;;21.60;88.80;;;;;;5043175;28;20090;-76
2023/06/27 10:14:51;;;;;;;0.20;0.20;;;21.60;88.80;;;;;;5030349;28;20102;-76
2023/06/27 10:17:21;;;;;;;0.20;0.20;;;21.60;88.70;;;;;;5026395;28;20435;-76
2023/06/27 10:19:47;;;;;;;0.20;0.20;;;21.70;89.10;;;;;;5045929;28;20037;-76
2023/06/27 10:22:21;;;;;;;0.20;0.20;;;21.70;89.30;;;;;;5027440;28;20488;-77
2023/06/27 10:24:51;;;;;;;0.20;0.20;;;21.70;88.40;;;;;;5026662;28;20045;-77
2023/06/27 10:27:21;;;;;;;0.28;0.28;;;21.70;87.60;;;;;;5048016;28;20386;-77
2023/06/27 10:29:47;;;;;;;0.10;0.10;;;21.70;87.40;;;;;;5030160;28;20380;-76
2023/06/27 10:32:19;;;;;;;0.20;0.20;;;21.70;87.60;;;;;;5046784;28;20055;-77
2023/06/27 10:34:45;;;;;;;0.20;0.20;;;21.70;87.60;;;;;;5044777;28;20138;-76
2023/06/27 10:37:31;;;;;;;0.20;0.20;;;21.70;87.60;;;;;;5040481;28;20115;-77
2023/06/27 10:40:00;;;;;;;0.20;0.20;;;21.70;88.00;;;;;;5049613;28;20506;-76
2023/06/27 10:42:29;;;;;;;0.20;0.20;;;21.70;88.00;;;;;;5032458;28;20456;-77
2023/06/27 10:45:03;;;;;;;0.20;0.20;;;21.70;87.90;;;;;;5033156;28;20063;-76
2023/06/27 10:47:38;;;;;;;0.20;0.20;;;21.70;88.10;;;;;;5047534;28;20071;-78
2023/06/27 10:50:10;;;;;;;0.20;0.20;;;21.70;88.10;;;;;;5050217;28;20116;-76
2023/06/27 10:52:37;;;;;;;0.13;0.13;;;21.80;88.20;;;;;;5049280;28;20124;-76
2023/06/27 10:55:18;;;;;;;0.20;0.20;;;21.70;88.10;;;;;;5033360;28;20392;-76
2023/06/27 10:57:58;;;;;;;0.40;0.40;;;21.80;88.00;;;;;;5032279;28;20047;-76
2023/06/27 11:00:29;;;;;;;0.20;0.20;;;21.80;87.60;;;;;;5052161;28;20045;-77
2023/06/27 11:03:02;;;;;;;0.35;0.28;;;21.80;87.20;;;;;;5051331;28;20040;-77
2023/06/27 11:05:49;;;;;;;0.20;0.20;;;21.80;87.10;;;;;;5030835;28;20094;-76
2023/06/27 11:08:17;;;;;;;0.20;0.20;;;21.80;87.00;;;;;;5032467;28;20045;-76
2023/06/27 11:10:52;;;;;;;0.20;0.20;;;21.70;86.60;;;;;;5034142;28;20434;-77
2023/06/27 11:13:25;;;;;;;0.10;0.10;;;21.70;86.40;;;;;;5031118;28;20049;-79
2023/06/27 11:15:52;;;;;;;0.15;0.15;;;21.70;86.50;;;;;;5042519;28;20044;-75
2023/06/27 11:18:19;;;;;;;0.20;0.20;;;21.70;86.60;;;;;;5047280;28;20131;-77
2023/06/27 11:20:45;;;;;;;0.20;0.20;;;21.80;86.50;;;;;;5032440;28;20057;-76
2023/06/27 11:23:15;;;;;;;0.20;0.20;;;21.80;86.50;;;;;;5034790;28;20068;-77
2023/06/27 11:25:45;;;;;;;0.20;0.20;;;21.80;85.80;;;;;;5033202;28;20396;-77
2023/06/27 11:28:18;;;;;;;0.20;0.20;;;21.80;85.80;;;;;;5027058;28;20045;-76
2023/06/27 11:30:44;;;;;;;0.20;0.20;;;21.90;86.10;;;;;;5052933;28;20100;-76
2023/06/27 11:33:12;;;;;;;0.20;0.20;;;21.90;86.30;;;;;;5031019;28;20496;-76
2023/06/27 11:35:40;;;;;;;0.20;0.20;;;22.00;86.30;;;;;;5024287;28;20550;-76
2023/06/27 11:38:07;;;;;;;0.20;0.20;;;22.10;86.00;;;;;;5030476;28;20048;-76
2023/06/27 11:40:32;;;;;;;0.20;0.20;;;22.10;85.80;;;;;;5034346;28;20056;-76
2023/06/27 11:43:04;;;;;;;0.20;0.20;;;22.20;85.40;;;;;;5032881;28;20059;-76
2023/06/27 11:45:31;;;;;;;0.13;0.13;;;22.20;84.30;;;;;;5034283;28;20055;-76
2023/06/27 11:47:57;;;;;;;0.20;0.20;;;22.20;84.70;;;;;;5033085;28;20400;-77
2023/06/27 11:50:24;;;;;;;0.20;0.20;;;22.20;84.10;;;;;;5050459;28;20106;-76
2023/06/27 11:52:51;;;;;;;0.20;0.20;;;22.30;84.10;;;;;;5038246;28;20041;-77
2023/06/27 11:55:16;;;;;;;0.10;0.10;;;22.30;84.70;;;;;;5032963;28;20465;-77
2023/06/27 11:57:47;;;;;;;0.20;0.20;;;22.20;84.20;;;;;;5031365;28;20041;-77
2023/06/27 12:00:20;;;;;;;0.20;0.20;;;22.20;84.10;;;;;;5047114;28;20045;-77
2023/06/27 12:02:54;;;;;;;0.20;0.20;;;22.20;83.60;;;;;;5031502;28;20060;-77
2023/06/27 12:05:22;;;;;;;0.20;0.20;;;22.20;83.90;;;;;;5030065;28;20164;-76
2023/06/27 12:08:04;;;;;;;0.10;0.10;;;22.20;83.70;;;;;;5029661;28;20091;-76
2023/06/27 12:10:47;;;;;;;0.20;0.20;;;22.20;83.60;;;;;;5028840;28;20086;-77
2023/06/27 12:13:13;;;;;;;0.20;0.20;;;22.20;83.40;;;;;;5048707;28;20047;-77
2023/06/27 12:15:46;;;;;;;0.20;0.20;;;22.10;83.60;;;;;;5037583;28;20536;-82
2023/06/27 12:18:28;;;;;;;0.20;0.20;;;22.10;83.40;;;;;;5031348;28;20055;-82
2023/06/27 12:20:55;;;;;;;0.20;0.20;;;22.10;83.20;;;;;;5026287;28;20056;-83
2023/06/27 12:23:22;;;;;;;0.17;0.17;;;22.10;82.90;;;;;;5049095;28;20078;-77
2023/06/27 12:25:48;;;;;;;0.20;0.20;;;22.00;82.40;;;;;;5032877;28;20441;-75
2023/06/27 12:28:14;;;;;;;0.20;0.20;;;22.00;82.60;;;;;;5047244;28;20122;-75
2023/06/27 12:30:40;;;;;;;0.10;0.10;;;21.90;82.80;;;;;;5028228;28;20059;-75
2023/06/27 12:33:08;;;;;;;0.20;0.20;;;21.90;82.80;;;;;;5028866;28;20052;-76
2023/06/27 12:35:34;;;;;;;0.10;0.10;;;21.90;82.80;;;;;;5028990;28;20080;-77
2023/06/27 12:38:00;;;;;;;0.20;0.20;;;21.80;83.00;;;;;;5025996;28;20179;-76
2023/06/27 12:40:26;;;;;;;0.20;0.20;;;21.90;83.10;;;;;;5030076;28;20140;-76
2023/06/27 12:42:52;;;;;;;0.15;0.15;;;21.90;83.50;;;;;;5030263;28;20048;-76
2023/06/27 12:45:19;;;;;;;0.10;0.10;;;21.90;83.50;;;;;;5049509;28;20129;-76
2023/06/27 12:47:46;;;;;;;0.20;0.20;;;21.90;83.50;;;;;;5033812;28;20111;-76
2023/06/27 12:50:13;;;;;;;0.10;0.10;;;22.00;83.80;;;;;;5031263;28;20108;-76